sensor_id;sensor_type;location;lat;lon;timestamp;P1;durP1;ratioP1;P2;durP2;ratioP2
33074;SDS011;19433;51.292;6.868;2022-10-24T00:02:22;7.80;;;4.17;;
33074;SDS011;19433;51.292;6.868;2022-10-24T00:04:48;9.90;;;3.93;;
33074;SDS011;19433;51.292;6.868;2022-10-24T00:07:13;12.20;;;4.33;;
33074;SDS011;19433;51.292;6.868;2022-10-24T00:09:39;6.27;;;3.70;;
33074;SDS011;19433;51.292;6.868;2022-10-24T00:12:04;4.80;;;3.50;;
33074;SDS011;19433;51.292;6.868;2022-10-24T00:14:31;5.93;;;3.60;;
33074;SDS011;19433;51.292;6.868;2022-10-24T00:16:57;6.70;;;4.23;;
33074;SDS011;19433;51.292;6.868;2022-10-24T00:19:22;4.90;;;3.80;;
33074;SDS011;19433;51.292;6.868;2022-10-24T00:21:47;8.13;;;4.00;;
33074;SDS011;19433;51.292;6.868;2022-10-24T00:24:13;6.07;;;3.63;;
33074;SDS011;19433;51.292;6.868;2022-10-24T00:26:38;7.43;;;4.07;;
33074;SDS011;19433;51.292;6.868;2022-10-24T00:29:06;9.40;;;4.70;;
33074;SDS011;19433;51.292;6.868;2022-10-24T00:31:31;5.53;;;3.60;;
33074;SDS011;19433;51.292;6.868;2022-10-24T00:33:57;11.30;;;4.13;;
33074;SDS011;19433;51.292;6.868;2022-10-24T00:36:24;8.20;;;4.47;;
33074;SDS011;19433;51.292;6.868;2022-10-24T00:38:50;8.10;;;3.97;;
33074;SDS011;19433;51.292;6.868;2022-10-24T00:41:23;8.37;;;5.33;;
33074;SDS011;19433;51.292;6.868;2022-10-24T00:44:10;4.47;;;3.60;;
33074;SDS011;19433;51.292;6.868;2022-10-24T00:46:48;8.37;;;4.30;;
33074;SDS011;19433;51.292;6.868;2022-10-24T00:49:18;6.67;;;3.93;;
33074;SDS011;19433;51.292;6.868;2022-10-24T00:51:48;8.77;;;4.10;;
33074;SDS011;19433;51.292;6.868;2022-10-24T00:54:16;5.57;;;3.50;;
33074;SDS011;19433;51.292;6.868;2022-10-24T00:56:44;4.73;;;3.93;;
33074;SDS011;19433;51.292;6.868;2022-10-24T00:59:17;4.03;;;3.50;;
33074;SDS011;19433;51.292;6.868;2022-10-24T01:01:44;4.87;;;3.33;;
33074;SDS011;19433;51.292;6.868;2022-10-24T01:04:11;6.43;;;3.10;;
33074;SDS011;19433;51.292;6.868;2022-10-24T01:06:45;4.87;;;3.30;;
33074;SDS011;19433;51.292;6.868;2022-10-24T01:09:23;8.00;;;3.70;;
33074;SDS011;19433;51.292;6.868;2022-10-24T01:22:07;6.13;;;3.80;;
33074;SDS011;19433;51.292;6.868;2022-10-24T01:30:36;4.57;;;3.20;;
33074;SDS011;19433;51.292;6.868;2022-10-24T01:36:04;9.27;;;3.07;;
33074;SDS011;19433;51.292;6.868;2022-10-24T01:38:37;7.87;;;4.03;;
33074;SDS011;19433;51.292;6.868;2022-10-24T01:41:10;11.73;;;2.90;;
33074;SDS011;19433;51.292;6.868;2022-10-24T01:43:40;3.50;;;3.10;;
33074;SDS011;19433;51.292;6.868;2022-10-24T01:46:10;7.00;;;3.10;;
33074;SDS011;19433;51.292;6.868;2022-10-24T01:48:39;4.40;;;2.80;;
33074;SDS011;19433;51.292;6.868;2022-10-24T01:51:08;12.23;;;3.40;;
33074;SDS011;19433;51.292;6.868;2022-10-24T01:53:37;13.47;;;3.97;;
33074;SDS011;19433;51.292;6.868;2022-10-24T01:56:03;8.27;;;3.30;;
33074;SDS011;19433;51.292;6.868;2022-10-24T01:58:29;4.07;;;2.97;;
33074;SDS011;19433;51.292;6.868;2022-10-24T02:00:57;4.60;;;3.20;;
33074;SDS011;19433;51.292;6.868;2022-10-24T02:03:44;7.67;;;3.07;;
33074;SDS011;19433;51.292;6.868;2022-10-24T02:06:22;3.80;;;2.80;;
33074;SDS011;19433;51.292;6.868;2022-10-24T02:08:53;5.70;;;3.27;;
33074;SDS011;19433;51.292;6.868;2022-10-24T02:11:22;6.67;;;3.00;;
33074;SDS011;19433;51.292;6.868;2022-10-24T02:13:55;5.10;;;3.30;;
33074;SDS011;19433;51.292;6.868;2022-10-24T02:16:25;6.50;;;3.23;;
33074;SDS011;19433;51.292;6.868;2022-10-24T02:18:51;7.70;;;3.20;;
33074;SDS011;19433;51.292;6.868;2022-10-24T02:24:23;5.37;;;3.60;;
33074;SDS011;19433;51.292;6.868;2022-10-24T02:27:03;3.80;;;2.50;;
33074;SDS011;19433;51.292;6.868;2022-10-24T02:29:47;5.83;;;2.90;;
33074;SDS011;19433;51.292;6.868;2022-10-24T02:32:24;6.37;;;2.90;;
33074;SDS011;19433;51.292;6.868;2022-10-24T02:34:56;8.90;;;3.00;;
33074;SDS011;19433;51.292;6.868;2022-10-24T02:37:23;5.13;;;2.50;;
33074;SDS011;19433;51.292;6.868;2022-10-24T02:39:51;4.50;;;2.77;;
33074;SDS011;19433;51.292;6.868;2022-10-24T02:42:18;6.07;;;3.43;;
33074;SDS011;19433;51.292;6.868;2022-10-24T02:44:46;3.37;;;3.00;;
33074;SDS011;19433;51.292;6.868;2022-10-24T02:47:13;6.30;;;2.97;;
33074;SDS011;19433;51.292;6.868;2022-10-24T02:49:40;6.90;;;4.20;;
33074;SDS011;19433;51.292;6.868;2022-10-24T02:52:07;7.57;;;2.73;;
33074;SDS011;19433;51.292;6.868;2022-10-24T02:54:32;6.53;;;3.13;;
33074;SDS011;19433;51.292;6.868;2022-10-24T02:56:59;5.73;;;2.53;;
33074;SDS011;19433;51.292;6.868;2022-10-24T02:59:26;6.13;;;2.23;;
33074;SDS011;19433;51.292;6.868;2022-10-24T03:01:52;5.33;;;2.77;;
33074;SDS011;19433;51.292;6.868;2022-10-24T03:04:17;7.73;;;3.03;;
33074;SDS011;19433;51.292;6.868;2022-10-24T03:06:43;8.40;;;2.60;;
33074;SDS011;19433;51.292;6.868;2022-10-24T03:09:08;5.13;;;3.00;;
33074;SDS011;19433;51.292;6.868;2022-10-24T03:11:33;10.60;;;3.10;;
33074;SDS011;19433;51.292;6.868;2022-10-24T03:13:59;5.70;;;3.40;;
33074;SDS011;19433;51.292;6.868;2022-10-24T03:16:24;4.80;;;2.50;;
33074;SDS011;19433;51.292;6.868;2022-10-24T03:18:50;5.20;;;2.77;;
33074;SDS011;19433;51.292;6.868;2022-10-24T03:21:15;5.73;;;3.10;;
33074;SDS011;19433;51.292;6.868;2022-10-24T03:23:41;10.13;;;3.33;;
33074;SDS011;19433;51.292;6.868;2022-10-24T03:26:06;9.83;;;3.50;;
33074;SDS011;19433;51.292;6.868;2022-10-24T03:28:31;6.80;;;2.60;;
33074;SDS011;19433;51.292;6.868;2022-10-24T03:30:57;7.70;;;3.10;;
33074;SDS011;19433;51.292;6.868;2022-10-24T03:33:22;14.37;;;3.00;;
33074;SDS011;19433;51.292;6.868;2022-10-24T03:35:51;4.50;;;2.50;;
33074;SDS011;19433;51.292;6.868;2022-10-24T03:38:18;6.53;;;3.40;;
33074;SDS011;19433;51.292;6.868;2022-10-24T03:40:44;8.47;;;3.40;;
33074;SDS011;19433;51.292;6.868;2022-10-24T03:43:09;8.57;;;3.93;;
33074;SDS011;19433;51.292;6.868;2022-10-24T03:45:34;10.00;;;2.80;;
33074;SDS011;19433;51.292;6.868;2022-10-24T03:48:01;9.17;;;2.87;;
33074;SDS011;19433;51.292;6.868;2022-10-24T03:50:27;10.93;;;3.40;;
33074;SDS011;19433;51.292;6.868;2022-10-24T03:52:52;3.97;;;2.50;;
33074;SDS011;19433;51.292;6.868;2022-10-24T03:55:18;4.90;;;2.90;;
33074;SDS011;19433;51.292;6.868;2022-10-24T03:57:43;4.80;;;2.53;;
33074;SDS011;19433;51.292;6.868;2022-10-24T04:00:08;11.33;;;2.90;;
33074;SDS011;19433;51.292;6.868;2022-10-24T04:02:34;4.60;;;2.23;;
33074;SDS011;19433;51.292;6.868;2022-10-24T04:04:59;4.63;;;2.50;;
33074;SDS011;19433;51.292;6.868;2022-10-24T04:07:25;4.67;;;2.50;;
33074;SDS011;19433;51.292;6.868;2022-10-24T04:09:50;3.90;;;2.60;;
33074;SDS011;19433;51.292;6.868;2022-10-24T04:12:15;6.73;;;3.17;;
33074;SDS011;19433;51.292;6.868;2022-10-24T04:14:40;8.10;;;3.93;;
33074;SDS011;19433;51.292;6.868;2022-10-24T04:17:06;4.87;;;2.27;;
33074;SDS011;19433;51.292;6.868;2022-10-24T04:19:31;7.63;;;2.87;;
33074;SDS011;19433;51.292;6.868;2022-10-24T04:21:57;4.93;;;2.63;;
33074;SDS011;19433;51.292;6.868;2022-10-24T04:24:22;6.20;;;3.00;;
33074;SDS011;19433;51.292;6.868;2022-10-24T04:26:47;6.03;;;3.20;;
33074;SDS011;19433;51.292;6.868;2022-10-24T04:29:13;4.23;;;2.60;;
33074;SDS011;19433;51.292;6.868;2022-10-24T04:31:38;21.00;;;2.93;;
33074;SDS011;19433;51.292;6.868;2022-10-24T04:34:03;5.40;;;2.90;;
33074;SDS011;19433;51.292;6.868;2022-10-24T04:36:29;10.93;;;2.93;;
33074;SDS011;19433;51.292;6.868;2022-10-24T04:38:55;5.10;;;2.70;;
33074;SDS011;19433;51.292;6.868;2022-10-24T04:41:20;7.73;;;2.50;;
33074;SDS011;19433;51.292;6.868;2022-10-24T04:43:46;4.83;;;3.10;;
33074;SDS011;19433;51.292;6.868;2022-10-24T04:46:11;5.73;;;3.10;;
33074;SDS011;19433;51.292;6.868;2022-10-24T04:48:36;4.23;;;2.70;;
33074;SDS011;19433;51.292;6.868;2022-10-24T04:51:01;3.90;;;3.00;;
33074;SDS011;19433;51.292;6.868;2022-10-24T04:53:27;9.50;;;3.43;;
33074;SDS011;19433;51.292;6.868;2022-10-24T04:55:53;3.83;;;3.20;;
33074;SDS011;19433;51.292;6.868;2022-10-24T04:58:18;7.80;;;3.07;;
33074;SDS011;19433;51.292;6.868;2022-10-24T05:00:43;9.17;;;2.70;;
33074;SDS011;19433;51.292;6.868;2022-10-24T05:03:15;3.87;;;2.10;;
33074;SDS011;19433;51.292;6.868;2022-10-24T05:05:43;5.13;;;2.40;;
33074;SDS011;19433;51.292;6.868;2022-10-24T05:08:09;9.37;;;3.03;;
33074;SDS011;19433;51.292;6.868;2022-10-24T05:10:34;4.57;;;2.40;;
33074;SDS011;19433;51.292;6.868;2022-10-24T05:12:59;3.67;;;2.63;;
33074;SDS011;19433;51.292;6.868;2022-10-24T05:15:24;6.00;;;2.20;;
33074;SDS011;19433;51.292;6.868;2022-10-24T05:17:50;5.63;;;2.50;;
33074;SDS011;19433;51.292;6.868;2022-10-24T05:20:15;3.10;;;2.37;;
33074;SDS011;19433;51.292;6.868;2022-10-24T05:22:40;6.43;;;3.10;;
33074;SDS011;19433;51.292;6.868;2022-10-24T05:25:06;12.27;;;2.87;;
33074;SDS011;19433;51.292;6.868;2022-10-24T05:27:32;3.90;;;2.50;;
33074;SDS011;19433;51.292;6.868;2022-10-24T05:29:58;6.10;;;2.77;;
33074;SDS011;19433;51.292;6.868;2022-10-24T05:32:23;11.97;;;2.83;;
33074;SDS011;19433;51.292;6.868;2022-10-24T05:34:49;6.87;;;2.60;;
33074;SDS011;19433;51.292;6.868;2022-10-24T05:37:15;5.53;;;2.43;;
33074;SDS011;19433;51.292;6.868;2022-10-24T05:39:42;4.40;;;2.30;;
33074;SDS011;19433;51.292;6.868;2022-10-24T05:42:07;3.70;;;2.43;;
33074;SDS011;19433;51.292;6.868;2022-10-24T05:44:33;6.37;;;2.93;;
33074;SDS011;19433;51.292;6.868;2022-10-24T05:46:58;4.40;;;2.10;;
33074;SDS011;19433;51.292;6.868;2022-10-24T05:49:24;5.17;;;2.20;;
33074;SDS011;19433;51.292;6.868;2022-10-24T05:51:49;4.43;;;3.27;;
33074;SDS011;19433;51.292;6.868;2022-10-24T05:54:14;5.90;;;2.40;;
33074;SDS011;19433;51.292;6.868;2022-10-24T05:56:40;3.13;;;2.43;;
33074;SDS011;19433;51.292;6.868;2022-10-24T05:59:05;3.87;;;1.97;;
33074;SDS011;19433;51.292;6.868;2022-10-24T06:01:31;5.27;;;2.07;;
33074;SDS011;19433;51.292;6.868;2022-10-24T06:03:56;4.63;;;2.40;;
33074;SDS011;19433;51.292;6.868;2022-10-24T06:06:22;3.53;;;2.27;;
33074;SDS011;19433;51.292;6.868;2022-10-24T06:08:48;4.70;;;2.43;;
33074;SDS011;19433;51.292;6.868;2022-10-24T06:11:14;3.63;;;1.83;;
33074;SDS011;19433;51.292;6.868;2022-10-24T06:13:39;2.83;;;1.80;;
33074;SDS011;19433;51.292;6.868;2022-10-24T06:16:05;3.57;;;1.97;;
33074;SDS011;19433;51.292;6.868;2022-10-24T06:18:31;4.57;;;2.20;;
33074;SDS011;19433;51.292;6.868;2022-10-24T06:21:00;2.70;;;1.87;;
33074;SDS011;19433;51.292;6.868;2022-10-24T06:23:27;5.43;;;2.00;;
33074;SDS011;19433;51.292;6.868;2022-10-24T06:25:52;4.87;;;1.83;;
33074;SDS011;19433;51.292;6.868;2022-10-24T06:28:17;8.17;;;2.67;;
33074;SDS011;19433;51.292;6.868;2022-10-24T06:30:43;3.13;;;1.73;;
33074;SDS011;19433;51.292;6.868;2022-10-24T06:33:08;9.20;;;2.10;;
33074;SDS011;19433;51.292;6.868;2022-10-24T06:35:33;5.20;;;1.80;;
33074;SDS011;19433;51.292;6.868;2022-10-24T06:37:59;3.90;;;2.00;;
33074;SDS011;19433;51.292;6.868;2022-10-24T06:40:24;11.73;;;1.90;;
33074;SDS011;19433;51.292;6.868;2022-10-24T06:42:49;14.70;;;2.23;;
33074;SDS011;19433;51.292;6.868;2022-10-24T06:45:15;5.90;;;2.40;;
33074;SDS011;19433;51.292;6.868;2022-10-24T06:47:42;3.80;;;1.83;;
33074;SDS011;19433;51.292;6.868;2022-10-24T06:50:07;3.40;;;2.07;;
33074;SDS011;19433;51.292;6.868;2022-10-24T06:52:33;1.77;;;1.37;;
33074;SDS011;19433;51.292;6.868;2022-10-24T06:54:59;6.63;;;2.00;;
33074;SDS011;19433;51.292;6.868;2022-10-24T06:57:24;4.87;;;2.37;;
33074;SDS011;19433;51.292;6.868;2022-10-24T06:59:49;3.67;;;1.77;;
33074;SDS011;19433;51.292;6.868;2022-10-24T07:02:15;2.43;;;1.83;;
33074;SDS011;19433;51.292;6.868;2022-10-24T07:04:41;3.80;;;1.60;;
33074;SDS011;19433;51.292;6.868;2022-10-24T07:07:11;5.63;;;2.17;;
33074;SDS011;19433;51.292;6.868;2022-10-24T07:09:38;6.30;;;2.50;;
33074;SDS011;19433;51.292;6.868;2022-10-24T07:12:03;4.13;;;2.10;;
33074;SDS011;19433;51.292;6.868;2022-10-24T07:14:29;3.73;;;1.40;;
33074;SDS011;19433;51.292;6.868;2022-10-24T07:16:54;3.57;;;1.87;;
33074;SDS011;19433;51.292;6.868;2022-10-24T07:19:19;1.60;;;1.50;;
33074;SDS011;19433;51.292;6.868;2022-10-24T07:21:45;4.37;;;1.93;;
33074;SDS011;19433;51.292;6.868;2022-10-24T07:24:10;4.53;;;2.17;;
33074;SDS011;19433;51.292;6.868;2022-10-24T07:26:37;5.30;;;2.43;;
33074;SDS011;19433;51.292;6.868;2022-10-24T07:29:03;1.90;;;1.73;;
33074;SDS011;19433;51.292;6.868;2022-10-24T07:31:29;3.23;;;1.40;;
33074;SDS011;19433;51.292;6.868;2022-10-24T07:33:56;8.23;;;2.00;;
33074;SDS011;19433;51.292;6.868;2022-10-24T07:36:23;11.33;;;2.60;;
33074;SDS011;19433;51.292;6.868;2022-10-24T07:38:50;3.43;;;1.30;;
33074;SDS011;19433;51.292;6.868;2022-10-24T07:41:17;3.33;;;1.60;;
33074;SDS011;19433;51.292;6.868;2022-10-24T07:43:42;1.73;;;1.33;;
33074;SDS011;19433;51.292;6.868;2022-10-24T07:46:10;3.03;;;1.60;;
33074;SDS011;19433;51.292;6.868;2022-10-24T07:48:37;4.70;;;1.70;;
33074;SDS011;19433;51.292;6.868;2022-10-24T07:51:04;3.30;;;1.80;;
33074;SDS011;19433;51.292;6.868;2022-10-24T07:53:30;6.77;;;2.37;;
33074;SDS011;19433;51.292;6.868;2022-10-24T07:55:56;2.90;;;1.53;;
33074;SDS011;19433;51.292;6.868;2022-10-24T07:58:22;6.43;;;2.23;;
33074;SDS011;19433;51.292;6.868;2022-10-24T08:00:47;4.27;;;1.50;;
33074;SDS011;19433;51.292;6.868;2022-10-24T08:03:13;3.47;;;1.47;;
33074;SDS011;19433;51.292;6.868;2022-10-24T08:05:38;4.37;;;1.67;;
33074;SDS011;19433;51.292;6.868;2022-10-24T08:08:04;6.80;;;1.30;;
33074;SDS011;19433;51.292;6.868;2022-10-24T08:10:30;1.93;;;1.50;;
33074;SDS011;19433;51.292;6.868;2022-10-24T08:12:55;6.10;;;1.80;;
33074;SDS011;19433;51.292;6.868;2022-10-24T08:15:20;4.10;;;1.57;;
33074;SDS011;19433;51.292;6.868;2022-10-24T08:17:47;3.33;;;2.10;;
33074;SDS011;19433;51.292;6.868;2022-10-24T08:20:12;7.00;;;1.90;;
33074;SDS011;19433;51.292;6.868;2022-10-24T08:22:37;14.00;;;2.17;;
33074;SDS011;19433;51.292;6.868;2022-10-24T08:25:03;2.40;;;1.27;;
33074;SDS011;19433;51.292;6.868;2022-10-24T08:27:30;2.30;;;1.57;;
33074;SDS011;19433;51.292;6.868;2022-10-24T08:29:56;3.87;;;1.30;;
33074;SDS011;19433;51.292;6.868;2022-10-24T08:32:21;2.50;;;1.53;;
33074;SDS011;19433;51.292;6.868;2022-10-24T08:34:46;5.07;;;1.80;;
33074;SDS011;19433;51.292;6.868;2022-10-24T08:37:11;2.27;;;1.87;;
33074;SDS011;19433;51.292;6.868;2022-10-24T08:39:37;5.87;;;1.87;;
33074;SDS011;19433;51.292;6.868;2022-10-24T08:42:04;5.87;;;1.83;;
33074;SDS011;19433;51.292;6.868;2022-10-24T08:44:32;3.53;;;1.30;;
33074;SDS011;19433;51.292;6.868;2022-10-24T08:47:06;7.10;;;2.47;;
33074;SDS011;19433;51.292;6.868;2022-10-24T08:50:01;3.87;;;1.50;;
33074;SDS011;19433;51.292;6.868;2022-10-24T08:52:30;2.40;;;1.50;;
33074;SDS011;19433;51.292;6.868;2022-10-24T08:55:05;5.97;;;2.70;;
33074;SDS011;19433;51.292;6.868;2022-10-24T08:57:37;6.30;;;1.83;;
33074;SDS011;19433;51.292;6.868;2022-10-24T09:00:07;7.83;;;2.07;;
33074;SDS011;19433;51.292;6.868;2022-10-24T09:02:57;3.33;;;1.73;;
33074;SDS011;19433;51.292;6.868;2022-10-24T09:05:28;3.90;;;1.30;;
33074;SDS011;19433;51.292;6.868;2022-10-24T09:07:58;5.30;;;1.93;;
33074;SDS011;19433;51.292;6.868;2022-10-24T09:10:37;5.93;;;1.83;;
33074;SDS011;19433;51.292;6.868;2022-10-24T09:13:10;7.00;;;2.77;;
33074;SDS011;19433;51.292;6.868;2022-10-24T09:15:37;3.90;;;1.50;;
33074;SDS011;19433;51.292;6.868;2022-10-24T09:18:08;2.50;;;1.53;;
33074;SDS011;19433;51.292;6.868;2022-10-24T09:20:49;8.27;;;1.90;;
33074;SDS011;19433;51.292;6.868;2022-10-24T09:23:17;3.57;;;1.50;;
33074;SDS011;19433;51.292;6.868;2022-10-24T09:25:47;9.63;;;2.00;;
33074;SDS011;19433;51.292;6.868;2022-10-24T09:28:14;10.10;;;1.97;;
33074;SDS011;19433;51.292;6.868;2022-10-24T09:30:41;6.47;;;1.67;;
33074;SDS011;19433;51.292;6.868;2022-10-24T09:35:41;3.63;;;1.37;;
33074;SDS011;19433;51.292;6.868;2022-10-24T09:40:50;5.17;;;2.87;;
33074;SDS011;19433;51.292;6.868;2022-10-24T09:43:22;4.07;;;1.80;;
33074;SDS011;19433;51.292;6.868;2022-10-24T09:48:21;3.33;;;1.60;;
33074;SDS011;19433;51.292;6.868;2022-10-24T09:50:51;7.07;;;1.80;;
33074;SDS011;19433;51.292;6.868;2022-10-24T09:53:29;5.43;;;1.70;;
33074;SDS011;19433;51.292;6.868;2022-10-24T09:55:58;5.77;;;1.93;;
33074;SDS011;19433;51.292;6.868;2022-10-24T09:58:30;4.83;;;1.60;;
33074;SDS011;19433;51.292;6.868;2022-10-24T10:01:04;4.43;;;1.77;;
33074;SDS011;19433;51.292;6.868;2022-10-24T10:03:32;1.57;;;1.23;;
33074;SDS011;19433;51.292;6.868;2022-10-24T10:06:15;4.50;;;1.20;;
33074;SDS011;19433;51.292;6.868;2022-10-24T10:08:47;4.13;;;1.63;;
33074;SDS011;19433;51.292;6.868;2022-10-24T10:11:24;7.17;;;1.70;;
33074;SDS011;19433;51.292;6.868;2022-10-24T10:13:51;3.60;;;1.70;;
33074;SDS011;19433;51.292;6.868;2022-10-24T10:16:20;4.77;;;1.70;;
33074;SDS011;19433;51.292;6.868;2022-10-24T10:18:48;2.93;;;1.40;;
33074;SDS011;19433;51.292;6.868;2022-10-24T10:23:42;6.13;;;1.53;;
33074;SDS011;19433;51.292;6.868;2022-10-24T10:26:14;5.90;;;1.63;;
33074;SDS011;19433;51.292;6.868;2022-10-24T10:29:04;4.83;;;1.90;;
33074;SDS011;19433;51.292;6.868;2022-10-24T10:34:35;3.70;;;1.77;;
33074;SDS011;19433;51.292;6.868;2022-10-24T10:37:10;4.83;;;1.90;;
33074;SDS011;19433;51.292;6.868;2022-10-24T10:40:09;5.07;;;2.50;;
33074;SDS011;19433;51.292;6.868;2022-10-24T10:42:52;8.07;;;1.73;;
33074;SDS011;19433;51.292;6.868;2022-10-24T10:50:57;8.40;;;1.77;;
33074;SDS011;19433;51.292;6.868;2022-10-24T10:59:13;6.23;;;2.07;;
33074;SDS011;19433;51.292;6.868;2022-10-24T11:04:42;5.73;;;1.90;;
33074;SDS011;19433;51.292;6.868;2022-10-24T11:07:22;7.63;;;2.07;;
33074;SDS011;19433;51.292;6.868;2022-10-24T11:10:16;9.00;;;1.83;;
33074;SDS011;19433;51.292;6.868;2022-10-24T11:12:46;3.90;;;1.57;;
33074;SDS011;19433;51.292;6.868;2022-10-24T11:15:19;8.53;;;3.27;;
33074;SDS011;19433;51.292;6.868;2022-10-24T11:17:47;8.33;;;1.53;;
33074;SDS011;19433;51.292;6.868;2022-10-24T11:23:01;6.57;;;2.40;;
33074;SDS011;19433;51.292;6.868;2022-10-24T11:25:44;9.87;;;2.97;;
33074;SDS011;19433;51.292;6.868;2022-10-24T11:31:12;6.40;;;2.33;;
33074;SDS011;19433;51.292;6.868;2022-10-24T11:33:45;3.93;;;1.70;;
33074;SDS011;19433;51.292;6.868;2022-10-24T11:39:05;7.37;;;1.70;;
33074;SDS011;19433;51.292;6.868;2022-10-24T11:41:53;3.43;;;1.60;;
33074;SDS011;19433;51.292;6.868;2022-10-24T11:44:40;6.70;;;1.70;;
33074;SDS011;19433;51.292;6.868;2022-10-24T11:49:47;5.83;;;1.90;;
33074;SDS011;19433;51.292;6.868;2022-10-24T11:52:25;8.63;;;2.13;;
33074;SDS011;19433;51.292;6.868;2022-10-24T11:54:56;5.33;;;2.00;;
33074;SDS011;19433;51.292;6.868;2022-10-24T11:57:26;6.27;;;2.10;;
33074;SDS011;19433;51.292;6.868;2022-10-24T11:59:53;5.40;;;2.40;;
33074;SDS011;19433;51.292;6.868;2022-10-24T12:02:25;4.13;;;2.10;;
33074;SDS011;19433;51.292;6.868;2022-10-24T12:05:21;6.97;;;2.43;;
33074;SDS011;19433;51.292;6.868;2022-10-24T12:13:26;4.50;;;1.90;;
33074;SDS011;19433;51.292;6.868;2022-10-24T12:18:55;6.30;;;2.07;;
33074;SDS011;19433;51.292;6.868;2022-10-24T12:21:25;5.60;;;1.70;;
33074;SDS011;19433;51.292;6.868;2022-10-24T12:23:57;7.73;;;2.10;;
33074;SDS011;19433;51.292;6.868;2022-10-24T12:26:31;16.33;;;2.53;;
33074;SDS011;19433;51.292;6.868;2022-10-24T12:29:03;9.80;;;2.63;;
33074;SDS011;19433;51.292;6.868;2022-10-24T12:31:31;5.40;;;1.40;;
33074;SDS011;19433;51.292;6.868;2022-10-24T12:47:37;6.53;;;2.13;;
33074;SDS011;19433;51.292;6.868;2022-10-24T12:58:02;6.40;;;2.20;;
33074;SDS011;19433;51.292;6.868;2022-10-24T13:00:52;5.30;;;1.87;;
33074;SDS011;19433;51.292;6.868;2022-10-24T13:03:30;6.77;;;1.83;;
33074;SDS011;19433;51.292;6.868;2022-10-24T13:06:36;5.23;;;1.80;;
33074;SDS011;19433;51.292;6.868;2022-10-24T13:12:18;4.30;;;2.30;;
33074;SDS011;19433;51.292;6.868;2022-10-24T13:15:02;3.57;;;1.40;;
33074;SDS011;19433;51.292;6.868;2022-10-24T13:17:38;3.63;;;1.50;;
33074;SDS011;19433;51.292;6.868;2022-10-24T13:20:16;5.03;;;1.43;;
33074;SDS011;19433;51.292;6.868;2022-10-24T13:22:44;4.50;;;1.50;;
33074;SDS011;19433;51.292;6.868;2022-10-24T13:25:17;4.50;;;1.70;;
33074;SDS011;19433;51.292;6.868;2022-10-24T13:27:44;7.43;;;1.73;;
33074;SDS011;19433;51.292;6.868;2022-10-24T13:30:42;9.50;;;1.83;;
33074;SDS011;19433;51.292;6.868;2022-10-24T13:38:37;4.77;;;1.50;;
33074;SDS011;19433;51.292;6.868;2022-10-24T13:41:06;3.17;;;1.37;;
33074;SDS011;19433;51.292;6.868;2022-10-24T13:43:35;8.10;;;2.33;;
33074;SDS011;19433;51.292;6.868;2022-10-24T13:46:08;5.13;;;1.90;;
33074;SDS011;19433;51.292;6.868;2022-10-24T13:48:34;7.70;;;1.90;;
33074;SDS011;19433;51.292;6.868;2022-10-24T13:51:17;5.37;;;1.40;;
33074;SDS011;19433;51.292;6.868;2022-10-24T13:53:46;6.23;;;1.87;;
33074;SDS011;19433;51.292;6.868;2022-10-24T13:56:17;7.20;;;2.00;;
33074;SDS011;19433;51.292;6.868;2022-10-24T13:58:43;8.83;;;2.20;;
33074;SDS011;19433;51.292;6.868;2022-10-24T14:01:25;4.83;;;2.33;;
33074;SDS011;19433;51.292;6.868;2022-10-24T14:03:54;4.20;;;1.87;;
33074;SDS011;19433;51.292;6.868;2022-10-24T14:06:31;4.67;;;2.07;;
33074;SDS011;19433;51.292;6.868;2022-10-24T14:09:01;7.40;;;1.80;;
33074;SDS011;19433;51.292;6.868;2022-10-24T14:11:33;5.90;;;1.80;;
33074;SDS011;19433;51.292;6.868;2022-10-24T14:14:03;3.63;;;1.80;;
33074;SDS011;19433;51.292;6.868;2022-10-24T14:16:44;5.63;;;1.27;;
33074;SDS011;19433;51.292;6.868;2022-10-24T14:19:10;5.07;;;1.53;;
33074;SDS011;19433;51.292;6.868;2022-10-24T14:21:47;5.70;;;2.30;;
33074;SDS011;19433;51.292;6.868;2022-10-24T14:24:19;4.80;;;1.60;;
33074;SDS011;19433;51.292;6.868;2022-10-24T14:26:47;5.43;;;1.70;;
33074;SDS011;19433;51.292;6.868;2022-10-24T14:29:22;5.20;;;1.47;;
33074;SDS011;19433;51.292;6.868;2022-10-24T14:31:58;2.90;;;1.40;;
33074;SDS011;19433;51.292;6.868;2022-10-24T14:34:25;3.80;;;1.83;;
33074;SDS011;19433;51.292;6.868;2022-10-24T14:36:51;8.90;;;1.60;;
33074;SDS011;19433;51.292;6.868;2022-10-24T14:39:18;5.03;;;1.77;;
33074;SDS011;19433;51.292;6.868;2022-10-24T14:41:48;5.57;;;1.47;;
33074;SDS011;19433;51.292;6.868;2022-10-24T14:44:14;4.03;;;1.90;;
33074;SDS011;19433;51.292;6.868;2022-10-24T14:46:41;4.67;;;1.30;;
33074;SDS011;19433;51.292;6.868;2022-10-24T14:49:19;3.70;;;2.00;;
33074;SDS011;19433;51.292;6.868;2022-10-24T14:51:51;4.53;;;1.50;;
33074;SDS011;19433;51.292;6.868;2022-10-24T14:54:19;7.97;;;1.93;;
33074;SDS011;19433;51.292;6.868;2022-10-24T14:56:46;3.23;;;1.53;;
33074;SDS011;19433;51.292;6.868;2022-10-24T14:59:17;8.10;;;2.00;;
33074;SDS011;19433;51.292;6.868;2022-10-24T15:01:52;3.17;;;1.80;;
33074;SDS011;19433;51.292;6.868;2022-10-24T15:04:37;5.70;;;1.80;;
33074;SDS011;19433;51.292;6.868;2022-10-24T15:07:14;6.17;;;1.93;;
33074;SDS011;19433;51.292;6.868;2022-10-24T15:09:51;5.87;;;2.03;;
33074;SDS011;19433;51.292;6.868;2022-10-24T15:12:24;4.97;;;2.17;;
33074;SDS011;19433;51.292;6.868;2022-10-24T15:18:08;5.77;;;2.30;;
33074;SDS011;19433;51.292;6.868;2022-10-24T15:20:43;8.70;;;2.30;;
33074;SDS011;19433;51.292;6.868;2022-10-24T15:23:20;5.43;;;2.00;;
33074;SDS011;19433;51.292;6.868;2022-10-24T15:26:19;6.93;;;1.80;;
33074;SDS011;19433;51.292;6.868;2022-10-24T15:31:29;5.87;;;1.80;;
33074;SDS011;19433;51.292;6.868;2022-10-24T15:33:56;6.30;;;1.53;;
33074;SDS011;19433;51.292;6.868;2022-10-24T15:36:25;4.90;;;1.80;;
33074;SDS011;19433;51.292;6.868;2022-10-24T15:38:57;7.43;;;2.53;;
33074;SDS011;19433;51.292;6.868;2022-10-24T15:41:25;9.80;;;2.90;;
33074;SDS011;19433;51.292;6.868;2022-10-24T15:43:51;5.07;;;1.80;;
33074;SDS011;19433;51.292;6.868;2022-10-24T15:46:17;4.97;;;1.77;;
33074;SDS011;19433;51.292;6.868;2022-10-24T15:48:43;4.10;;;1.50;;
33074;SDS011;19433;51.292;6.868;2022-10-24T15:51:14;4.93;;;1.57;;
33074;SDS011;19433;51.292;6.868;2022-10-24T15:53:41;3.47;;;1.40;;
33074;SDS011;19433;51.292;6.868;2022-10-24T15:56:08;7.13;;;1.90;;
33074;SDS011;19433;51.292;6.868;2022-10-24T15:58:35;6.83;;;2.10;;
33074;SDS011;19433;51.292;6.868;2022-10-24T16:01:00;4.60;;;2.13;;
33074;SDS011;19433;51.292;6.868;2022-10-24T16:03:26;10.60;;;2.87;;
33074;SDS011;19433;51.292;6.868;2022-10-24T16:05:52;7.00;;;2.23;;
33074;SDS011;19433;51.292;6.868;2022-10-24T16:08:19;10.50;;;3.50;;
33074;SDS011;19433;51.292;6.868;2022-10-24T16:10:46;10.10;;;2.30;;
33074;SDS011;19433;51.292;6.868;2022-10-24T16:13:13;6.30;;;2.00;;
33074;SDS011;19433;51.292;6.868;2022-10-24T16:15:39;6.70;;;2.33;;
33074;SDS011;19433;51.292;6.868;2022-10-24T16:18:05;6.07;;;1.97;;
33074;SDS011;19433;51.292;6.868;2022-10-24T16:20:31;6.40;;;2.23;;
33074;SDS011;19433;51.292;6.868;2022-10-24T16:22:57;6.43;;;2.77;;
33074;SDS011;19433;51.292;6.868;2022-10-24T16:25:23;5.80;;;2.10;;
33074;SDS011;19433;51.292;6.868;2022-10-24T16:27:52;6.60;;;2.47;;
33074;SDS011;19433;51.292;6.868;2022-10-24T16:30:18;9.40;;;3.57;;
33074;SDS011;19433;51.292;6.868;2022-10-24T16:32:46;7.07;;;2.73;;
33074;SDS011;19433;51.292;6.868;2022-10-24T16:35:19;11.10;;;4.27;;
33074;SDS011;19433;51.292;6.868;2022-10-24T16:37:47;8.80;;;3.90;;
33074;SDS011;19433;51.292;6.868;2022-10-24T16:40:13;7.73;;;3.73;;
33074;SDS011;19433;51.292;6.868;2022-10-24T16:42:38;7.07;;;3.57;;
33074;SDS011;19433;51.292;6.868;2022-10-24T16:45:04;8.90;;;2.50;;
33074;SDS011;19433;51.292;6.868;2022-10-24T16:47:30;8.20;;;2.93;;